Time;durP1;ratioP1;P1;durP2;ratioP2;P2;SDS_P1;SDS_P2;PMS_P1;PMS_P2;Temp;Humidity;BMP_temperature;BMP_pressure;BME280_temperature;BME280_humidity;BME280_pressure;Samples;Min_cycle;Max_cycle;Signal;HPM_P1;HPM_P2
2022/01/08 00:00:50;;;;;;;40.40;19.20;;;;;;;-1.69;64.78;102051.30;1767184;81;25897;-65
2022/01/08 00:03:17;;;;;;;32.20;16.73;;;;;;;-1.64;64.79;102057.83;1767601;81;25723;-64
2022/01/08 00:05:44;;;;;;;31.40;15.83;;;;;;;-1.62;64.74;102050.77;1767544;81;25786;-65
2022/01/08 00:08:11;;;;;;;35.60;15.45;;;;;;;-1.64;64.65;102054.72;1767355;81;25838;-64
2022/01/08 00:10:40;;;;;;;34.08;16.85;;;;;;;-1.65;64.75;102049.48;1798103;79;28226;-65
2022/01/08 00:13:08;;;;;;;30.50;14.80;;;;;;;-1.61;64.74;102046.77;1802214;79;25780;-65
2022/01/08 00:15:38;;;;;;;31.23;14.75;;;;;;;-1.55;64.90;102040.95;1802649;79;25757;-64
2022/01/08 00:18:05;;;;;;;42.17;15.85;;;;;;;-1.51;64.85;102039.55;1802276;79;26514;-65
2022/01/08 00:20:32;;;;;;;28.60;14.65;;;;;;;-1.49;64.78;102042.18;1802657;79;25808;-64
2022/01/08 00:22:58;;;;;;;33.28;15.93;;;;;;;-1.55;64.63;102043.16;1802411;79;27463;-64
2022/01/08 00:25:25;;;;;;;30.00;14.53;;;;;;;-1.61;64.64;102038.84;1770666;79;25821;-63
2022/01/08 00:27:52;;;;;;;26.52;13.30;;;;;;;-1.59;64.76;102034.42;1767643;81;26494;-63
2022/01/08 00:30:22;;;;;;;26.73;12.78;;;;;;;-1.58;64.84;102033.53;1767443;81;25841;-64
2022/01/08 00:32:49;;;;;;;24.15;12.95;;;;;;;-1.51;64.95;102037.37;1768032;79;25783;-64
2022/01/08 00:35:17;;;;;;;22.20;13.03;;;;;;;-1.53;64.92;102022.89;1767353;81;28172;-64
2022/01/08 00:37:44;;;;;;;26.97;13.18;;;;;;;-1.44;65.05;102025.80;1767308;81;25721;-64
2022/01/08 00:40:13;;;;;;;28.05;12.75;;;;;;;-1.38;64.82;102019.54;1767112;81;25801;-63
2022/01/08 00:42:40;;;;;;;22.82;14.03;;;;;;;-1.31;64.90;102018.09;1767466;80;26623;-63
2022/01/08 00:45:09;;;;;;;34.23;11.90;;;;;;;-1.28;64.84;102008.77;1767542;81;25774;-63
2022/01/08 00:47:38;;;;;;;25.43;12.33;;;;;;;-1.27;64.81;102009.19;1772736;79;27521;-63
2022/01/08 00:50:06;;;;;;;26.48;11.93;;;;;;;-1.23;64.78;102012.64;1775085;80;26250;-64
2022/01/08 00:52:33;;;;;;;23.25;12.00;;;;;;;-1.16;64.77;102014.25;1777844;80;25791;-63
2022/01/08 00:55:00;;;;;;;19.32;11.65;;;;;;;-1.18;64.57;102005.95;1768511;80;26462;-64
2022/01/08 00:57:26;;;;;;;19.98;10.85;;;;;;;-1.17;64.74;102003.30;1743415;82;25813;-64
2022/01/08 00:59:57;;;;;;;20.57;10.63;;;;;;;-1.13;64.72;102008.06;1742954;81;27473;-65
2022/01/08 01:02:27;;;;;;;23.15;11.60;;;;;;;-1.11;64.64;102002.28;1770825;79;26182;-64
2022/01/08 01:04:54;;;;;;;20.32;10.85;;;;;;;-1.13;64.59;101996.19;1744457;82;25619;-65
2022/01/08 01:07:21;;;;;;;18.98;11.12;;;;;;;-1.20;64.84;101986.19;1744620;82;26173;-64
2022/01/08 01:09:47;;;;;;;15.95;9.00;;;;;;;-1.25;64.88;101982.75;1744582;82;25803;-64
2022/01/08 01:12:15;;;;;;;15.98;10.00;;;;;;;-1.27;64.99;101997.77;1793663;79;27467;-64
2022/01/08 01:14:42;;;;;;;21.48;10.50;;;;;;;-1.26;65.05;101983.21;1799298;79;25797;-64
2022/01/08 01:17:11;;;;;;;17.90;9.78;;;;;;;-1.23;65.17;101973.50;1799348;79;25816;-64
2022/01/08 01:19:39;;;;;;;18.07;9.80;;;;;;;-1.25;65.68;101982.75;1799202;79;25820;-63
2022/01/08 01:22:06;;;;;;;18.95;9.90;;;;;;;-1.33;65.80;101975.00;1799031;79;27287;-64
2022/01/08 01:24:35;;;;;;;19.10;10.25;;;;;;;-1.36;65.92;101967.12;1799045;79;27473;-63
2022/01/08 01:30:01;;;;;;;18.32;9.68;;;;;;;-1.40;66.29;101966.78;1762008;81;25766;-64
2022/01/08 01:41:36;;;;;;;18.32;9.55;;;;;;;-1.44;66.86;101947.50;1676406;84;25894;-65
2022/01/08 01:48:22;;;;;;;16.90;9.18;;;;;;;-1.34;66.85;101940.25;1773128;80;25819;-64
2022/01/08 01:50:52;;;;;;;19.32;9.08;;;;;;;-1.31;66.92;101928.76;1793871;79;27447;-64
2022/01/08 01:53:19;;;;;;;14.63;8.45;;;;;;;-1.28;67.01;101930.88;1769919;79;25786;-64
2022/01/08 01:55:49;;;;;;;15.38;9.10;;;;;;;-1.24;66.82;101930.83;1782321;79;25746;-64
2022/01/08 01:58:20;;;;;;;13.98;8.48;;;;;;;-1.19;66.78;101927.20;1797871;79;25833;-64
2022/01/08 02:00:50;;;;;;;15.78;9.23;;;;;;;-1.15;66.53;101919.61;1780382;79;25743;-63
2022/01/08 02:03:18;;;;;;;17.95;8.88;;;;;;;-1.15;66.64;101921.39;1765452;81;28326;-64
2022/01/08 02:05:46;;;;;;;15.03;8.45;;;;;;;-1.16;66.61;101911.73;1765563;79;26390;-63
2022/01/08 02:08:16;;;;;;;18.32;9.20;;;;;;;-1.16;66.48;101903.81;1752786;81;25835;-64
2022/01/08 02:10:45;;;;;;;16.52;8.78;;;;;;;-1.16;66.44;101905.98;1765851;81;25948;-64
2022/01/08 02:13:28;;;;;;;17.23;9.98;;;;;;;-1.14;66.45;101912.58;1765379;81;25800;-63
2022/01/08 02:15:57;;;;;;;17.87;8.78;;;;;;;-1.18;66.30;101909.13;1766237;81;27541;-63
2022/01/08 02:18:30;;;;;;;14.90;8.58;;;;;;;-1.19;66.66;101907.83;1765711;81;25801;-64
2022/01/08 02:20:58;;;;;;;16.37;8.78;;;;;;;-1.18;66.69;101910.89;1751617;81;25768;-63
2022/01/08 02:23:26;;;;;;;15.15;8.20;;;;;;;-1.19;66.90;101904.75;1766191;79;25831;-64
2022/01/08 02:26:04;;;;;;;22.65;8.35;;;;;;;-1.21;66.88;101897.30;1766501;81;25908;-63
2022/01/08 02:28:32;;;;;;;10.20;7.47;;;;;;;-1.21;67.05;101897.30;1764995;81;27443;-63
2022/01/08 02:30:59;;;;;;;16.45;7.53;;;;;;;-1.20;67.09;101891.13;1782257;80;25825;-63
2022/01/08 02:33:28;;;;;;;15.83;8.08;;;;;;;-1.21;67.44;101881.46;1782099;80;25718;-64
2022/01/08 02:35:56;;;;;;;11.33;7.25;;;;;;;-1.21;67.36;101884.56;1782356;80;26401;-64
2022/01/08 02:38:25;;;;;;;13.08;7.67;;;;;;;-1.21;67.58;101892.48;1780949;80;25999;-64
2022/01/08 02:40:58;;;;;;;12.98;7.05;;;;;;;-1.25;67.62;101890.34;1781651;80;27497;-64
2022/01/08 02:43:24;;;;;;;11.33;6.80;;;;;;;-1.23;67.47;101888.54;1768980;79;25932;-64
2022/01/08 02:45:53;;;;;;;11.20;6.50;;;;;;;-1.18;67.50;101889.77;1733651;82;25809;-63
2022/01/08 02:48:22;;;;;;;10.40;6.40;;;;;;;-1.15;67.45;101890.56;1745244;81;26605;-63
2022/01/08 02:50:48;;;;;;;11.70;6.90;;;;;;;-1.13;67.28;101884.80;1722598;81;25740;-64
2022/01/08 02:53:15;;;;;;;11.22;6.15;;;;;;;-1.08;67.12;101889.98;1769609;80;28176;-64
2022/01/08 02:55:44;;;;;;;9.40;5.03;;;;;;;-1.03;66.96;101873.57;1773982;80;25743;-64
2022/01/08 02:58:11;;;;;;;10.05;6.00;;;;;;;-0.99;66.70;101871.76;1794003;80;25834;-63
2022/01/08 03:00:38;;;;;;;10.13;5.10;;;;;;;-0.93;66.20;101877.33;1793872;80;25740;-64
2022/01/08 03:03:05;;;;;;;9.78;4.90;;;;;;;-0.86;65.92;101874.98;1794282;79;25692;-64
2022/01/08 03:05:32;;;;;;;10.50;5.25;;;;;;;-0.86;65.87;101871.88;1794138;80;27477;-64
2022/01/08 03:08:00;;;;;;;11.12;4.97;;;;;;;-0.80;65.68;101872.20;1793952;79;25724;-64
2022/01/08 03:10:27;;;;;;;9.00;5.78;;;;;;;-0.75;65.47;101876.91;1785444;80;25686;-64
2022/01/08 03:12:55;;;;;;;13.98;5.40;;;;;;;-0.74;65.29;101874.68;1759106;81;25800;-64
2022/01/08 03:15:23;;;;;;;12.80;5.33;;;;;;;-0.75;65.25;101876.05;1758601;81;25793;-64
2022/01/08 03:17:52;;;;;;;7.40;5.12;;;;;;;-0.75;65.13;101875.59;1759322;81;28247;-64
2022/01/08 03:20:19;;;;;;;9.38;4.85;;;;;;;-0.73;64.96;101883.50;1757889;81;25879;-64
2022/01/08 03:22:49;;;;;;;11.25;5.72;;;;;;;-0.74;64.81;101889.22;1759226;81;25764;-64
2022/01/08 03:25:16;;;;;;;10.72;5.35;;;;;;;-0.70;64.81;101880.77;1790152;80;25802;-63
2022/01/08 03:27:48;;;;;;;10.10;5.37;;;;;;;-0.67;64.68;101880.70;1794454;79;26404;-64
2022/01/08 03:30:14;;;;;;;20.70;4.83;;;;;;;-0.67;64.65;101874.95;1793873;79;27484;-64
2022/01/08 03:32:41;;;;;;;12.20;5.00;;;;;;;-0.70;64.44;101875.04;1794184;79;25814;-64
2022/01/08 03:35:11;;;;;;;9.73;5.60;;;;;;;-0.66;64.50;101883.30;1794001;80;25748;-65
2022/01/08 03:37:40;;;;;;;12.47;6.45;;;;;;;-0.66;64.63;101881.13;1794145;79;26529;-65
2022/01/08 03:40:10;;;;;;;11.20;5.58;;;;;;;-0.69;64.76;101876.78;1761767;80;25422;-64
2022/01/08 03:42:39;;;;;;;10.32;5.60;;;;;;;-0.66;64.86;101875.84;1759588;80;27847;-64
2022/01/08 03:45:07;;;;;;;10.28;5.22;;;;;;;-0.65;64.80;101877.11;1758960;81;25767;-64
2022/01/08 03:50:19;;;;;;;12.05;5.40;;;;;;;-0.67;64.50;101864.37;1774620;80;26354;-64
2022/01/08 03:52:47;;;;;;;19.10;5.20;;;;;;;-0.71;64.51;101869.77;1765657;81;25786;-64
2022/01/08 03:55:14;;;;;;;9.68;5.45;;;;;;;-0.75;64.36;101870.30;1755640;81;27518;-64
2022/01/08 03:57:41;;;;;;;11.15;5.85;;;;;;;-0.81;64.33;101867.34;1733738;82;25772;-65
2022/01/08 04:00:12;;;;;;;11.10;5.58;;;;;;;-0.85;64.20;101861.73;1733490;82;26480;-64
2022/01/08 04:02:40;;;;;;;14.23;6.47;;;;;;;-0.90;64.23;101860.09;1733579;82;26458;-64
2022/01/08 04:05:08;;;;;;;10.72;5.45;;;;;;;-0.95;64.34;101865.05;1741158;80;26190;-64
2022/01/08 04:07:35;;;;;;;13.03;5.80;;;;;;;-0.98;64.47;101865.11;1781483;80;27439;-64
2022/01/08 04:10:04;;;;;;;12.70;5.67;;;;;;;-0.99;64.28;101867.33;1781373;80;25726;-65
2022/01/08 04:12:37;;;;;;;10.68;5.40;;;;;;;-1.00;64.30;101859.45;1781522;80;25727;-64
2022/01/08 04:15:09;;;;;;;9.73;5.62;;;;;;;-1.02;64.37;101855.50;1781209;79;26578;-64
2022/01/08 04:17:36;;;;;;;11.00;6.08;;;;;;;-1.02;64.32;101851.54;1781970;79;32376;-64
2022/01/08 04:20:06;;;;;;;9.85;5.30;;;;;;;-1.09;64.20;101856.55;1778040;80;27475;-64
2022/01/08 04:22:38;;;;;;;10.93;5.53;;;;;;;-1.14;64.24;101857.13;1765629;81;25819;-64
2022/01/08 04:25:08;;;;;;;9.18;5.40;;;;;;;-1.15;64.15;101860.66;1765608;81;25763;-64
2022/01/08 04:27:35;;;;;;;11.03;6.03;;;;;;;-1.18;64.19;101855.44;1765921;80;25758;-65
2022/01/08 04:30:03;;;;;;;13.93;6.72;;;;;;;-1.21;64.40;101854.20;1787621;80;25906;-64
2022/01/08 04:32:30;;;;;;;13.28;6.67;;;;;;;-1.23;64.58;101848.94;1787624;80;28083;-64
2022/01/08 04:34:57;;;;;;;12.15;6.87;;;;;;;-1.23;64.70;101854.22;1808024;78;25805;-64
2022/01/08 04:37:24;;;;;;;13.90;6.08;;;;;;;-1.27;64.73;101849.45;1817463;78;25684;-64
2022/01/08 04:39:51;;;;;;;16.97;7.62;;;;;;;-1.30;64.73;101853.94;1817421;78;25798;-65
2022/01/08 04:42:17;;;;;;;11.65;6.53;;;;;;;-1.31;65.21;101849.12;1806103;78;26209;-64
2022/01/08 04:44:44;;;;;;;8.30;5.47;;;;;;;-1.35;65.42;101840.84;1781613;80;26885;-64
2022/01/08 04:47:13;;;;;;;12.07;6.37;;;;;;;-1.39;65.50;101849.70;1782071;80;25959;-64
2022/01/08 04:49:42;;;;;;;15.35;5.55;;;;;;;-1.39;65.55;101845.75;1788062;78;25743;-64
2022/01/08 04:52:08;;;;;;;9.50;5.20;;;;;;;-1.43;65.63;101842.31;1778298;78;26447;-65
2022/01/08 04:54:38;;;;;;;11.68;6.50;;;;;;;-1.45;65.85;101840.61;1780825;80;25799;-64
2022/01/08 04:57:05;;;;;;;13.05;6.25;;;;;;;-1.44;65.63;101838.39;1784383;78;28063;-65
2022/01/08 04:59:32;;;;;;;10.05;5.28;;;;;;;-1.46;65.71;101836.23;1767446;81;25750;-64
2022/01/08 05:01:59;;;;;;;12.13;6.97;;;;;;;-1.51;66.03;101840.75;1785555;79;25747;-64
2022/01/08 05:04:28;;;;;;;12.15;5.78;;;;;;;-1.53;66.04;101830.23;1802406;79;25814;-64
2022/01/08 05:06:57;;;;;;;13.95;5.90;;;;;;;-1.55;66.07;101831.14;1802727;79;25702;-65
2022/01/08 05:09:24;;;;;;;16.60;6.75;;;;;;;-1.55;66.51;101828.50;1802260;79;27497;-64
2022/01/08 05:11:51;;;;;;;12.65;6.12;;;;;;;-1.56;66.53;101830.28;1802423;79;25752;-64
2022/01/08 05:14:17;;;;;;;11.90;6.65;;;;;;;-1.59;66.50;101820.67;1802797;79;25854;-64
2022/01/08 05:16:46;;;;;;;11.55;6.33;;;;;;;-1.58;66.81;101826.80;1802472;79;25859;-64
2022/01/08 05:19:21;;;;;;;14.68;6.35;;;;;;;-1.60;66.75;101825.96;1749977;82;25746;-64
2022/01/08 05:21:42;;;;;;;12.95;6.72;;;;;;;-1.61;66.77;101825.54;1748666;82;28670;-64
2022/01/08 05:24:08;;;;;;;14.63;6.78;;;;;;;-1.64;66.74;101818.56;1749955;82;25732;-65
2022/01/08 05:26:35;;;;;;;11.45;6.50;;;;;;;-1.66;67.03;101819.50;1750050;82;25738;-65
2022/01/08 05:29:03;;;;;;;12.15;5.87;;;;;;;-1.68;67.24;101830.09;1750012;82;27847;-64
2022/01/08 05:31:31;;;;;;;13.45;6.97;;;;;;;-1.69;67.31;101826.15;1750008;79;26261;-63
2022/01/08 05:33:58;;;;;;;14.40;7.17;;;;;;;-1.70;67.49;101826.61;1753063;79;27597;-64
2022/01/08 05:36:25;;;;;;;17.12;7.30;;;;;;;-1.70;67.51;101829.25;1767709;81;25765;-65
2022/01/08 05:38:51;;;;;;;15.25;7.58;;;;;;;-1.68;67.67;101828.78;1767405;81;25673;-64
2022/01/08 05:41:21;;;;;;;18.05;7.58;;;;;;;-1.71;67.68;101824.88;1767575;81;25877;-64
2022/01/08 05:43:48;;;;;;;13.38;6.53;;;;;;;-1.73;67.75;101817.43;1756747;80;25822;-63
2022/01/08 05:46:14;;;;;;;19.27;7.03;;;;;;;-1.74;67.84;101820.53;1762771;79;27522;-64
2022/01/08 05:48:42;;;;;;;11.73;6.83;;;;;;;-1.73;67.89;101821.39;1775725;79;25729;-64
2022/01/08 05:51:12;;;;;;;15.10;7.03;;;;;;;-1.70;67.97;101820.02;1764603;81;25850;-64
2022/01/08 05:53:38;;;;;;;18.98;6.22;;;;;;;-1.68;68.11;101815.58;1763262;81;25716;-63
2022/01/08 05:56:08;;;;;;;11.00;6.30;;;;;;;-1.67;68.01;101822.60;1762102;80;25787;-63
2022/01/08 05:58:37;;;;;;;9.85;5.87;;;;;;;-1.66;68.00;101821.67;1781908;80;27262;-64
2022/01/08 06:01:04;;;;;;;11.68;6.30;;;;;;;-1.63;68.01;101826.90;1782054;80;25633;-65
2022/01/08 06:03:30;;;;;;;14.85;7.28;;;;;;;-1.61;67.93;101821.58;1761637;80;25842;-64
2022/01/08 06:05:57;;;;;;;10.32;6.47;;;;;;;-1.61;68.02;101821.15;1731602;82;25872;-63
2022/01/08 06:08:24;;;;;;;12.10;6.40;;;;;;;-1.58;67.90;101819.78;1760517;81;25755;-64
2022/01/08 06:10:51;;;;;;;10.13;6.17;;;;;;;-1.54;67.73;101814.41;1763359;81;27042;-64
2022/01/08 06:13:18;;;;;;;9.23;5.65;;;;;;;-1.51;67.63;101819.17;1763574;81;25734;-63
2022/01/08 06:15:44;;;;;;;13.15;6.20;;;;;;;-1.46;67.57;101816.44;1762421;81;25660;-64
2022/01/08 06:18:16;;;;;;;14.87;6.90;;;;;;;-1.44;67.65;101809.36;1754603;81;25781;-64
2022/01/08 06:20:43;;;;;;;14.95;5.22;;;;;;;-1.44;67.61;101806.29;1754635;80;25820;-63
2022/01/08 06:23:10;;;;;;;12.53;6.25;;;;;;;-1.37;67.41;101802.19;1754798;80;28038;-64
2022/01/08 06:25:38;;;;;;;12.70;6.30;;;;;;;-1.36;67.30;101809.20;1754401;81;25785;-64
2022/01/08 06:28:05;;;;;;;9.68;5.92;;;;;;;-1.34;67.54;101806.94;1754756;81;25775;-63
2022/01/08 06:30:33;;;;;;;11.12;6.15;;;;;;;-1.34;67.49;101802.98;1750418;81;25792;-63
2022/01/08 06:33:02;;;;;;;12.13;6.95;;;;;;;-1.33;67.58;101807.36;1760974;81;25463;-62
2022/01/08 06:35:32;;;;;;;14.65;6.97;;;;;;;-1.33;67.58;101807.36;1759404;81;28239;-63
2022/01/08 06:37:58;;;;;;;14.25;7.12;;;;;;;-1.28;67.62;101796.70;1758018;81;25708;-63
2022/01/08 06:40:28;;;;;;;14.30;8.03;;;;;;;-1.21;67.51;101801.39;1754558;81;25724;-63
2022/01/08 06:42:57;;;;;;;17.27;8.78;;;;;;;-1.19;67.50;101795.17;1740319;81;25790;-63
2022/01/08 06:45:24;;;;;;;24.18;9.73;;;;;;;-1.15;67.33;101789.36;1759049;81;25782;-64
2022/01/08 06:47:52;;;;;;;19.90;10.48;;;;;;;-1.13;67.28;101787.09;1759531;81;28241;-64
2022/01/08 06:50:20;;;;;;;17.32;9.98;;;;;;;-1.11;67.34;101794.53;1749506;82;25986;-64
2022/01/08 06:52:46;;;;;;;19.45;10.28;;;;;;;-1.07;67.44;101787.41;1756134;80;25802;-64
2022/01/08 06:55:14;;;;;;;18.62;8.13;;;;;;;-1.05;67.27;101800.56;1774068;80;26379;-64
2022/01/08 06:57:44;;;;;;;13.93;8.10;;;;;;;-0.99;67.15;101800.44;1756810;81;25810;-63
2022/01/08 07:00:13;;;;;;;21.23;8.93;;;;;;;-0.93;67.11;101802.05;1756571;81;27490;-64
2022/01/08 07:02:43;;;;;;;17.10;8.55;;;;;;;-0.88;67.10;101799.70;1756508;81;25806;-64
2022/01/08 07:05:11;;;;;;;17.20;8.70;;;;;;;-0.83;67.15;101802.23;1787129;78;25750;-64
2022/01/08 07:07:39;;;;;;;16.77;8.00;;;;;;;-0.77;67.05;101794.19;1762428;81;26504;-64
2022/01/08 07:10:07;;;;;;;17.12;8.13;;;;;;;-0.71;67.02;101790.06;1761835;81;27237;-64
2022/01/08 07:12:35;;;;;;;16.95;8.33;;;;;;;-0.66;66.86;101797.41;1762110;81;27468;-64
2022/01/08 07:15:03;;;;;;;18.87;8.93;;;;;;;-0.61;66.73;101790.68;1769671;79;25764;-64
2022/01/08 07:17:30;;;;;;;16.82;7.87;;;;;;;-0.55;66.75;101787.91;1794994;79;25683;-64
2022/01/08 07:19:57;;;;;;;16.77;7.97;;;;;;;-0.48;66.79;101792.12;1794463;79;26960;-64
2022/01/08 07:22:24;;;;;;;19.60;8.88;;;;;;;-0.40;66.69;101789.72;1794519;79;25822;-64
2022/01/08 07:24:54;;;;;;;20.12;8.83;;;;;;;-0.35;66.57;101786.05;1794319;79;27457;-65
2022/01/08 07:27:20;;;;;;;20.10;8.60;;;;;;;-0.23;66.57;101790.14;1794232;79;25758;-64
2022/01/08 07:29:49;;;;;;;18.77;7.67;;;;;;;-0.17;66.32;101787.78;1788914;78;25664;-65
2022/01/08 07:32:19;;;;;;;14.58;7.58;;;;;;;-0.13;66.17;101793.39;1761946;81;26554;-65
2022/01/08 07:34:47;;;;;;;16.55;8.33;;;;;;;-0.07;66.20;101777.80;1762391;81;25815;-64
2022/01/08 07:37:14;;;;;;;13.35;7.80;;;;;;;0.02;66.33;101786.81;1761964;81;26854;-66
2022/01/08 07:39:43;;;;;;;15.18;7.97;;;;;;;0.09;66.25;101779.57;1762176;81;26415;-63
2022/01/08 07:42:09;;;;;;;18.17;8.08;;;;;;;0.16;66.29;101785.09;1765339;80;25752;-64
2022/01/08 07:44:40;;;;;;;21.95;8.43;;;;;;;0.22;66.16;101782.73;1778600;79;26234;-63
2022/01/08 07:47:07;;;;;;;26.25;10.78;;;;;;;0.27;66.11;101770.25;1760750;80;25760;-64
2022/01/08 07:49:34;;;;;;;31.62;12.90;;;;;;;0.40;66.09;101772.07;1778559;80;27605;-65
2022/01/08 07:52:04;;;;;;;19.50;11.15;;;;;;;0.51;66.01;101766.45;1777346;80;25753;-65
2022/01/08 07:54:31;;;;;;;19.77;10.75;;;;;;;0.62;65.73;101763.02;1779497;79;25799;-64
2022/01/08 07:56:58;;;;;;;16.55;11.38;;;;;;;0.75;65.33;101757.73;1744997;82;25796;-64
2022/01/08 07:59:25;;;;;;;16.07;8.95;;;;;;;0.88;65.24;101759.53;1745011;82;25784;-64
2022/01/08 08:01:54;;;;;;;15.45;7.75;;;;;;;1.02;64.80;101760.88;1745517;81;28180;-64
2022/01/08 08:04:21;;;;;;;11.53;6.42;;;;;;;1.12;64.67;101752.16;1744814;82;26509;-64
2022/01/08 08:06:49;;;;;;;17.65;7.62;;;;;;;1.30;64.52;101749.36;1745196;82;25715;-63
2022/01/08 08:09:16;;;;;;;18.40;7.40;;;;;;;1.39;63.97;101745.92;1744900;79;26334;-63
2022/01/08 08:11:44;;;;;;;14.38;7.45;;;;;;;1.50;63.24;101743.36;1796919;79;25847;-65
2022/01/08 08:14:11;;;;;;;15.00;7.70;;;;;;;1.59;63.38;101749.67;1796685;79;27449;-64
2022/01/08 08:16:38;;;;;;;10.60;6.40;;;;;;;1.70;62.74;101743.98;1796865;79;25721;-64
2022/01/08 08:19:05;;;;;;;21.42;9.30;;;;;;;1.75;62.61;101743.34;1776449;79;25799;-64
2022/01/08 08:21:32;;;;;;;15.10;7.10;;;;;;;1.78;62.66;101751.20;1732193;81;25817;-64
2022/01/08 08:24:00;;;;;;;18.77;6.05;;;;;;;1.84;62.22;101748.78;1762392;81;25823;-64
2022/01/08 08:26:27;;;;;;;10.88;6.17;;;;;;;1.89;62.20;101756.10;1762343;81;28595;-65
2022/01/08 08:28:54;;;;;;;10.03;6.17;;;;;;;1.92;61.88;101746.72;1762219;81;25818;-64
2022/01/08 08:31:23;;;;;;;13.83;7.55;;;;;;;1.92;61.94;101752.02;1762098;81;25587;-63
2022/01/08 08:33:50;;;;;;;14.18;7.53;;;;;;;1.92;61.89;101748.52;1782201;79;25804;-64
2022/01/08 08:36:17;;;;;;;16.10;7.25;;;;;;;1.95;62.14;101742.63;1786598;79;25749;-64
2022/01/08 08:38:44;;;;;;;23.10;8.23;;;;;;;1.97;61.95;101741.23;1762365;81;27465;-63
2022/01/08 08:41:11;;;;;;;18.87;9.25;;;;;;;1.96;61.93;101736.41;1762133;80;25752;-63
2022/01/08 08:43:38;;;;;;;15.25;8.08;;;;;;;1.97;62.19;101727.50;1762047;80;25766;-63
2022/01/08 08:46:05;;;;;;;17.95;7.58;;;;;;;2.12;61.71;101731.37;1822154;78;25748;-65
2022/01/08 08:48:34;;;;;;;14.03;8.63;;;;;;;2.22;61.92;101726.59;1784389;80;25741;-64
2022/01/08 08:51:01;;;;;;;11.70;7.00;;;;;;;2.38;61.39;101714.89;1796238;78;27497;-64
2022/01/08 08:53:27;;;;;;;13.13;7.40;;;;;;;2.50;61.48;101714.42;1762425;79;25783;-64
2022/01/08 08:55:54;;;;;;;17.70;7.37;;;;;;;2.56;61.03;101705.35;1792385;80;25829;-64
2022/01/08 08:58:24;;;;;;;14.00;6.05;;;;;;;2.60;61.00;101694.98;1791964;80;26522;-65
2022/01/08 09:00:51;;;;;;;13.62;6.17;;;;;;;2.66;60.92;101689.89;1791811;80;25771;-65
2022/01/08 09:03:20;;;;;;;16.35;6.42;;;;;;;2.71;60.78;101683.95;1791644;79;27485;-65
2022/01/08 09:05:49;;;;;;;13.45;6.42;;;;;;;2.73;60.55;101670.14;1806108;78;25756;-65
2022/01/08 09:08:18;;;;;;;16.60;6.87;;;;;;;2.77;60.35;101670.87;1819810;78;25680;-65
2022/01/08 09:10:46;;;;;;;13.70;6.33;;;;;;;2.81;60.41;101674.67;1765213;80;25774;-66
2022/01/08 09:13:16;;;;;;;12.70;7.05;;;;;;;2.82;60.22;101667.06;1771292;80;25695;-65
2022/01/08 09:15:45;;;;;;;17.02;7.17;;;;;;;2.85;59.95;101658.58;1771421;80;28761;-66
2022/01/08 09:18:12;;;;;;;11.25;5.72;;;;;;;2.91;60.10;101651.70;1780588;79;25745;-65
2022/01/08 09:20:39;;;;;;;10.85;6.12;;;;;;;3.02;60.06;101645.43;1808559;79;25769;-64
2022/01/08 09:23:06;;;;;;;19.75;7.08;;;;;;;3.09;59.72;101644.71;1802739;79;25783;-65
2022/01/08 09:25:33;;;;;;;17.17;7.90;;;;;;;3.12;59.93;101640.60;1799622;79;25770;-63
2022/01/08 09:28:00;;;;;;;15.60;6.58;;;;;;;3.17;59.79;101628.44;1783720;79;28165;-63
2022/01/08 09:30:28;;;;;;;17.75;9.95;;;;;;;3.24;59.66;101621.91;1783295;79;25714;-65
2022/01/08 09:32:55;;;;;;;22.30;11.10;;;;;;;3.26;59.84;101614.73;1781404;79;25790;-65
2022/01/08 09:35:26;;;;;;;13.18;7.45;;;;;;;3.22;59.56;101616.67;1784099;79;25948;-66
2022/01/08 09:37:53;;;;;;;24.50;8.78;;;;;;;3.23;60.01;101610.39;1782642;80;26392;-66
2022/01/08 09:40:23;;;;;;;16.30;7.58;;;;;;;3.29;59.91;101604.83;1778413;79;27466;-66
2022/01/08 09:42:52;;;;;;;15.00;6.90;;;;;;;3.31;59.94;101602.56;1772973;79;25776;-66
2022/01/08 09:45:20;;;;;;;14.63;6.70;;;;;;;3.29;59.66;101603.50;1777300;79;25763;-65
2022/01/08 09:47:49;;;;;;;17.40;6.90;;;;;;;3.30;59.27;101593.70;1786009;79;26644;-64
2022/01/08 09:50:16;;;;;;;15.43;7.03;;;;;;;3.27;59.66;101598.70;1786777;79;25690;-65
2022/01/08 09:52:43;;;;;;;14.53;6.40;;;;;;;3.21;59.43;101598.98;1773459;79;27493;-65
2022/01/08 09:55:09;;;;;;;12.40;6.60;;;;;;;3.20;59.79;101594.59;1786647;79;25798;-62
2022/01/08 09:57:36;;;;;;;14.05;6.75;;;;;;;3.19;59.69;101595.97;1779376;79;25792;-65
2022/01/08 10:00:14;;;;;;;11.57;6.15;;;;;;;3.18;59.98;101591.61;1784376;79;27003;-66
2022/01/08 10:02:44;;;;;;;16.55;6.65;;;;;;;3.19;59.87;101587.55;1777269;79;25709;-65
2022/01/08 10:05:15;;;;;;;18.40;7.60;;;;;;;3.16;60.01;101588.16;1786569;79;27524;-65
2022/01/08 10:07:43;;;;;;;17.73;7.10;;;;;;;3.20;60.06;101587.95;1777681;79;25822;-65
2022/01/08 10:10:17;;;;;;;26.55;11.63;;;;;;;3.23;60.09;101582.95;1783772;79;25746;-65
2022/01/08 10:12:57;;;;;;;15.15;9.13;;;;;;;3.25;60.03;101577.11;1789488;79;25801;-62
2022/01/08 10:18:35;;;;;;;20.27;8.80;;;;;;;3.13;60.28;101582.03;1802818;79;27460;-65
2022/01/08 10:21:25;;;;;;;20.40;11.12;;;;;;;3.20;60.55;101576.43;1776983;79;25814;-66
2022/01/08 10:23:57;;;;;;;21.23;10.82;;;;;;;3.19;60.53;101574.25;1795146;79;25717;-65
2022/01/08 10:26:31;;;;;;;21.23;12.35;;;;;;;3.16;60.58;101570.39;1785281;79;25785;-64
2022/01/08 10:29:05;;;;;;;21.37;10.28;;;;;;;3.08;60.61;101565.44;1792561;79;25822;-64
2022/01/08 10:31:42;;;;;;;19.98;9.28;;;;;;;3.02;60.72;101564.35;1772626;79;26861;-64
2022/01/08 10:34:21;;;;;;;31.45;11.75;;;;;;;2.98;60.89;101553.00;1795903;79;25725;-65
2022/01/08 10:37:01;;;;;;;25.55;12.82;;;;;;;2.95;61.03;101557.14;1771361;79;25727;-65
2022/01/08 10:39:33;;;;;;;28.55;12.35;;;;;;;2.95;60.96;101558.92;1768387;79;54530;-65
2022/01/08 10:42:13;;;;;;;27.50;10.50;;;;;;;2.96;61.34;101558.84;1783228;79;25773;-65
2022/01/08 10:44:43;;;;;;;44.80;21.65;;;;;;;2.93;61.43;101554.12;1763492;79;28730;-65
2022/01/08 10:47:17;;;;;;;32.60;13.48;;;;;;;2.87;61.69;101553.08;1779047;79;25716;-65
2022/01/08 10:50:02;;;;;;;22.90;9.75;;;;;;;2.90;61.79;101551.63;1773565;79;25761;-65
2022/01/08 10:52:43;;;;;;;18.02;9.43;;;;;;;2.91;61.97;101553.36;1787725;78;26202;-63
2022/01/08 10:55:09;;;;;;;21.12;10.53;;;;;;;2.93;61.95;101551.47;1792846;79;25446;-64
2022/01/08 10:57:40;;;;;;;24.20;12.90;;;;;;;2.92;61.96;101540.44;1798939;78;27471;-64
2022/01/08 11:00:12;;;;;;;24.98;12.10;;;;;;;2.96;62.00;101544.22;1797710;79;25946;-63
2022/01/08 11:02:43;;;;;;;20.00;9.80;;;;;;;3.09;61.87;101537.04;1774713;79;25823;-63
2022/01/08 11:05:11;;;;;;;19.75;9.78;;;;;;;3.18;61.86;101529.13;1798494;79;25778;-63
2022/01/08 11:07:41;;;;;;;24.20;9.78;;;;;;;3.27;61.88;101528.23;1784110;79;25855;-64
2022/01/08 11:10:16;;;;;;;25.23;9.73;;;;;;;3.35;61.80;101525.23;1784285;80;27471;-64
2022/01/08 11:12:43;;;;;;;25.12;10.13;;;;;;;3.43;61.44;101524.41;1784085;79;25846;-64
2022/01/08 11:15:46;;;;;;;19.05;10.28;;;;;;;3.49;61.53;101525.04;1797668;79;25812;-64
2022/01/08 11:17:57;;;;;;;32.33;11.05;;;;;;;3.55;61.52;101516.76;1792467;79;25859;-64
2022/01/08 11:20:31;;;;;;;53.65;10.82;;;;;;;3.61;61.32;101513.83;1785450;79;26494;-64
2022/01/08 11:23:02;;;;;;;23.27;9.63;;;;;;;3.61;61.24;101512.50;1771768;80;27512;-63
2022/01/08 11:25:36;;;;;;;20.52;9.68;;;;;;;3.59;61.05;101514.36;1800362;79;25799;-64
2022/01/08 11:28:10;;;;;;;;;;;;;;;3.56;61.16;101506.06;1786797;80;25783;-64
2022/01/08 11:30:43;;;;;;;;;;;;;;;3.50;61.34;101512.98;1787957;79;25840;-64
2022/01/08 11:33:18;;;;;;;19.52;8.43;;;;;;;3.46;61.60;101508.76;1789681;79;25626;-64
2022/01/08 11:35:45;;;;;;;13.72;8.70;;;;;;;3.42;61.74;101513.81;1787494;79;27463;-64
2022/01/08 11:38:16;;;;;;;16.97;8.50;;;;;;;3.43;61.83;101514.22;1788018;79;25775;-64
2022/01/08 11:40:50;;;;;;;26.48;10.05;;;;;;;3.45;61.78;101511.87;1786254;79;25697;-63
2022/01/08 11:43:21;;;;;;;15.80;8.85;;;;;;;3.49;61.93;101508.63;1785474;79;26466;-63
2022/01/08 11:45:55;;;;;;;12.90;7.80;;;;;;;3.49;61.91;101499.31;1791452;79;25795;-63
2022/01/08 11:48:37;;;;;;;;;;;;;;;3.50;61.90;101494.84;1764157;81;27411;-64